sensor_id;sensor_type;location;lat;lon;timestamp;temperature;humidity
25450;DHT22;13371;52.080;5.624;2023-02-22T00:00:16;9.30;99.90
25450;DHT22;13371;52.080;5.624;2023-02-22T00:02:53;9.50;99.90
25450;DHT22;13371;52.080;5.624;2023-02-22T00:05:25;9.50;99.90
25450;DHT22;13371;52.080;5.624;2023-02-22T00:07:51;9.60;99.90
25450;DHT22;13371;52.080;5.624;2023-02-22T00:10:17;9.70;99.90
25450;DHT22;13371;52.080;5.624;2023-02-22T00:12:49;9.70;99.90
25450;DHT22;13371;52.080;5.624;2023-02-22T00:15:17;10.20;99.90
25450;DHT22;13371;52.080;5.624;2023-02-22T00:17:44;10.10;99.90
25450;DHT22;13371;52.080;5.624;2023-02-22T00:20:11;10.20;99.90
25450;DHT22;13371;52.080;5.624;2023-02-22T00:22:42;9.50;99.90
25450;DHT22;13371;52.080;5.624;2023-02-22T00:25:12;9.40;99.90
25450;DHT22;13371;52.080;5.624;2023-02-22T00:27:38;9.10;99.90
25450;DHT22;13371;52.080;5.624;2023-02-22T00:30:04;9.30;99.90
25450;DHT22;13371;52.080;5.624;2023-02-22T00:32:30;9.30;99.90
25450;DHT22;13371;52.080;5.624;2023-02-22T00:34:56;9.20;99.90
25450;DHT22;13371;52.080;5.624;2023-02-22T00:37:22;8.90;99.90
25450;DHT22;13371;52.080;5.624;2023-02-22T00:39:49;9.30;99.90
25450;DHT22;13371;52.080;5.624;2023-02-22T00:42:15;9.30;99.90
25450;DHT22;13371;52.080;5.624;2023-02-22T00:44:42;9.30;99.90
25450;DHT22;13371;52.080;5.624;2023-02-22T00:47:08;9.40;99.90
25450;DHT22;13371;52.080;5.624;2023-02-22T00:49:34;9.20;99.90
25450;DHT22;13371;52.080;5.624;2023-02-22T00:51:59;9.40;99.90
25450;DHT22;13371;52.080;5.624;2023-02-22T00:54:25;9.60;99.90
25450;DHT22;13371;52.080;5.624;2023-02-22T00:56:52;9.50;99.90
25450;DHT22;13371;52.080;5.624;2023-02-22T00:59:17;9.30;99.90
25450;DHT22;13371;52.080;5.624;2023-02-22T01:01:43;9.40;99.90
25450;DHT22;13371;52.080;5.624;2023-02-22T01:04:08;9.20;99.90
25450;DHT22;13371;52.080;5.624;2023-02-22T01:06:35;9.20;99.90
25450;DHT22;13371;52.080;5.624;2023-02-22T01:09:01;9.30;99.90
25450;DHT22;13371;52.080;5.624;2023-02-22T01:11:28;9.20;99.90
25450;DHT22;13371;52.080;5.624;2023-02-22T01:13:54;8.40;99.90
25450;DHT22;13371;52.080;5.624;2023-02-22T01:16:21;8.20;99.90
25450;DHT22;13371;52.080;5.624;2023-02-22T01:18:46;8.20;99.90
25450;DHT22;13371;52.080;5.624;2023-02-22T01:21:12;8.70;99.90
25450;DHT22;13371;52.080;5.624;2023-02-22T01:23:38;9.20;99.90
25450;DHT22;13371;52.080;5.624;2023-02-22T01:26:04;9.40;99.90
25450;DHT22;13371;52.080;5.624;2023-02-22T01:28:31;9.20;99.90
25450;DHT22;13371;52.080;5.624;2023-02-22T01:30:57;9.20;99.90
25450;DHT22;13371;52.080;5.624;2023-02-22T01:33:23;9.30;99.90
25450;DHT22;13371;52.080;5.624;2023-02-22T01:35:48;9.70;99.90
25450;DHT22;13371;52.080;5.624;2023-02-22T01:38:15;9.60;99.90
25450;DHT22;13371;52.080;5.624;2023-02-22T01:40:45;9.60;99.90
25450;DHT22;13371;52.080;5.624;2023-02-22T01:43:30;9.90;99.90
25450;DHT22;13371;52.080;5.624;2023-02-22T01:48:38;9.60;99.90
25450;DHT22;13371;52.080;5.624;2023-02-22T01:51:18;9.20;99.90
25450;DHT22;13371;52.080;5.624;2023-02-22T01:56:17;9.30;99.90
25450;DHT22;13371;52.080;5.624;2023-02-22T01:58:46;9.50;99.90
25450;DHT22;13371;52.080;5.624;2023-02-22T02:01:13;9.10;99.90
25450;DHT22;13371;52.080;5.624;2023-02-22T02:03:39;8.60;99.90
25450;DHT22;13371;52.080;5.624;2023-02-22T02:06:09;8.30;99.90
25450;DHT22;13371;52.080;5.624;2023-02-22T02:08:53;8.20;99.90
25450;DHT22;13371;52.080;5.624;2023-02-22T02:11:22;7.90;99.90
25450;DHT22;13371;52.080;5.624;2023-02-22T02:13:50;7.80;99.90
25450;DHT22;13371;52.080;5.624;2023-02-22T02:16:17;8.10;99.90
25450;DHT22;13371;52.080;5.624;2023-02-22T02:18:43;8.20;99.90
25450;DHT22;13371;52.080;5.624;2023-02-22T02:24:06;7.80;99.90
25450;DHT22;13371;52.080;5.624;2023-02-22T02:32:46;9.00;99.90
25450;DHT22;13371;52.080;5.624;2023-02-22T02:41:18;9.90;99.90
25450;DHT22;13371;52.080;5.624;2023-02-22T02:44:05;9.30;99.90
25450;DHT22;13371;52.080;5.624;2023-02-22T02:49:12;9.20;99.90
25450;DHT22;13371;52.080;5.624;2023-02-22T02:51:42;9.20;99.90
25450;DHT22;13371;52.080;5.624;2023-02-22T02:54:09;9.10;99.90
25450;DHT22;13371;52.080;5.624;2023-02-22T02:56:36;8.80;99.90
25450;DHT22;13371;52.080;5.624;2023-02-22T02:59:02;9.30;99.90
25450;DHT22;13371;52.080;5.624;2023-02-22T03:04:17;9.30;99.90
25450;DHT22;13371;52.080;5.624;2023-02-22T03:20:08;8.90;99.90
25450;DHT22;13371;52.080;5.624;2023-02-22T03:23:00;9.10;99.90
25450;DHT22;13371;52.080;5.624;2023-02-22T03:25:33;8.80;99.90
25450;DHT22;13371;52.080;5.624;2023-02-22T03:28:05;9.00;99.90
25450;DHT22;13371;52.080;5.624;2023-02-22T03:31:08;9.10;99.90
25450;DHT22;13371;52.080;5.624;2023-02-22T03:33:36;9.30;99.90
25450;DHT22;13371;52.080;5.624;2023-02-22T03:36:15;9.30;99.90
25450;DHT22;13371;52.080;5.624;2023-02-22T03:38:43;9.50;99.90
25450;DHT22;13371;52.080;5.624;2023-02-22T03:41:11;9.30;99.90
25450;DHT22;13371;52.080;5.624;2023-02-22T03:43:42;9.20;99.90
25450;DHT22;13371;52.080;5.624;2023-02-22T03:46:08;9.40;99.90
25450;DHT22;13371;52.080;5.624;2023-02-22T03:51:25;8.60;99.90
25450;DHT22;13371;52.080;5.624;2023-02-22T03:53:51;8.20;99.90
25450;DHT22;13371;52.080;5.624;2023-02-22T03:56:22;8.10;99.90
25450;DHT22;13371;52.080;5.624;2023-02-22T03:58:50;8.10;99.90
25450;DHT22;13371;52.080;5.624;2023-02-22T04:01:16;7.90;99.90
25450;DHT22;13371;52.080;5.624;2023-02-22T04:03:44;8.50;99.90
25450;DHT22;13371;52.080;5.624;2023-02-22T04:06:09;8.50;99.90
25450;DHT22;13371;52.080;5.624;2023-02-22T04:08:35;8.50;99.90
25450;DHT22;13371;52.080;5.624;2023-02-22T04:11:01;8.00;99.90
25450;DHT22;13371;52.080;5.624;2023-02-22T04:13:27;8.30;99.90
25450;DHT22;13371;52.080;5.624;2023-02-22T04:15:53;8.30;99.90
25450;DHT22;13371;52.080;5.624;2023-02-22T04:18:19;8.40;99.90
25450;DHT22;13371;52.080;5.624;2023-02-22T04:20:44;8.00;99.90
25450;DHT22;13371;52.080;5.624;2023-02-22T04:23:10;7.80;99.90
25450;DHT22;13371;52.080;5.624;2023-02-22T04:25:36;8.00;99.90
25450;DHT22;13371;52.080;5.624;2023-02-22T04:28:02;8.30;99.90
25450;DHT22;13371;52.080;5.624;2023-02-22T04:30:28;7.80;99.90
25450;DHT22;13371;52.080;5.624;2023-02-22T04:32:55;7.40;99.90
25450;DHT22;13371;52.080;5.624;2023-02-22T04:35:21;7.40;99.90
25450;DHT22;13371;52.080;5.624;2023-02-22T04:37:46;7.50;99.90
25450;DHT22;13371;52.080;5.624;2023-02-22T04:40:12;7.50;99.90
25450;DHT22;13371;52.080;5.624;2023-02-22T04:42:38;7.70;99.90
25450;DHT22;13371;52.080;5.624;2023-02-22T04:45:06;7.50;99.90
25450;DHT22;13371;52.080;5.624;2023-02-22T04:47:33;7.90;99.90
25450;DHT22;13371;52.080;5.624;2023-02-22T04:49:58;8.30;99.90
25450;DHT22;13371;52.080;5.624;2023-02-22T04:52:25;7.70;99.90
25450;DHT22;13371;52.080;5.624;2023-02-22T04:54:51;7.30;99.90
25450;DHT22;13371;52.080;5.624;2023-02-22T04:57:17;7.50;99.90
25450;DHT22;13371;52.080;5.624;2023-02-22T04:59:43;7.80;99.90
25450;DHT22;13371;52.080;5.624;2023-02-22T05:02:08;7.90;99.90
25450;DHT22;13371;52.080;5.624;2023-02-22T05:04:35;7.90;99.90
25450;DHT22;13371;52.080;5.624;2023-02-22T05:07:01;8.20;99.90
25450;DHT22;13371;52.080;5.624;2023-02-22T05:09:27;7.90;99.90
25450;DHT22;13371;52.080;5.624;2023-02-22T05:11:52;7.20;99.90
25450;DHT22;13371;52.080;5.624;2023-02-22T05:14:18;7.00;99.90
25450;DHT22;13371;52.080;5.624;2023-02-22T05:16:43;7.20;99.90
25450;DHT22;13371;52.080;5.624;2023-02-22T05:19:09;6.80;99.90
25450;DHT22;13371;52.080;5.624;2023-02-22T05:21:34;6.70;99.90
25450;DHT22;13371;52.080;5.624;2023-02-22T05:24:00;6.70;99.90
25450;DHT22;13371;52.080;5.624;2023-02-22T05:26:26;7.00;99.90
25450;DHT22;13371;52.080;5.624;2023-02-22T05:28:51;7.20;99.90
25450;DHT22;13371;52.080;5.624;2023-02-22T05:31:17;7.20;99.90
25450;DHT22;13371;52.080;5.624;2023-02-22T05:33:42;7.40;99.90
25450;DHT22;13371;52.080;5.624;2023-02-22T05:36:08;7.20;99.90
25450;DHT22;13371;52.080;5.624;2023-02-22T05:38:35;7.40;99.90
25450;DHT22;13371;52.080;5.624;2023-02-22T05:41:08;7.40;99.90
25450;DHT22;13371;52.080;5.624;2023-02-22T05:43:35;7.80;99.90
25450;DHT22;13371;52.080;5.624;2023-02-22T05:46:01;7.50;99.90
25450;DHT22;13371;52.080;5.624;2023-02-22T05:48:26;7.50;99.90
25450;DHT22;13371;52.080;5.624;2023-02-22T05:50:52;7.90;99.90
25450;DHT22;13371;52.080;5.624;2023-02-22T05:53:17;7.60;99.90
25450;DHT22;13371;52.080;5.624;2023-02-22T05:55:43;7.20;99.90
25450;DHT22;13371;52.080;5.624;2023-02-22T05:58:08;7.10;99.90
25450;DHT22;13371;52.080;5.624;2023-02-22T06:00:34;6.70;99.90
25450;DHT22;13371;52.080;5.624;2023-02-22T06:03:03;6.60;99.90
25450;DHT22;13371;52.080;5.624;2023-02-22T06:05:30;6.60;99.90
25450;DHT22;13371;52.080;5.624;2023-02-22T06:07:56;6.90;99.90
25450;DHT22;13371;52.080;5.624;2023-02-22T06:10:22;7.20;99.90
25450;DHT22;13371;52.080;5.624;2023-02-22T06:12:49;7.40;99.90
25450;DHT22;13371;52.080;5.624;2023-02-22T06:15:16;7.20;99.90
25450;DHT22;13371;52.080;5.624;2023-02-22T06:17:42;7.10;99.90
25450;DHT22;13371;52.080;5.624;2023-02-22T06:20:10;7.10;99.90
25450;DHT22;13371;52.080;5.624;2023-02-22T06:22:36;7.50;99.90
25450;DHT22;13371;52.080;5.624;2023-02-22T06:25:03;6.90;99.90
25450;DHT22;13371;52.080;5.624;2023-02-22T06:27:32;6.70;99.90
25450;DHT22;13371;52.080;5.624;2023-02-22T06:29:59;6.50;99.90
25450;DHT22;13371;52.080;5.624;2023-02-22T06:32:25;6.70;99.90
25450;DHT22;13371;52.080;5.624;2023-02-22T06:34:51;6.80;99.90
25450;DHT22;13371;52.080;5.624;2023-02-22T06:37:16;6.50;99.90
25450;DHT22;13371;52.080;5.624;2023-02-22T06:39:42;6.90;99.90
25450;DHT22;13371;52.080;5.624;2023-02-22T06:42:07;7.10;99.90
25450;DHT22;13371;52.080;5.624;2023-02-22T06:44:33;7.10;99.90
25450;DHT22;13371;52.080;5.624;2023-02-22T06:46:59;7.40;99.90
25450;DHT22;13371;52.080;5.624;2023-02-22T06:49:26;7.10;99.90
25450;DHT22;13371;52.080;5.624;2023-02-22T06:51:52;6.30;99.90
25450;DHT22;13371;52.080;5.624;2023-02-22T06:54:18;6.10;99.90
25450;DHT22;13371;52.080;5.624;2023-02-22T06:56:44;6.00;99.90
25450;DHT22;13371;52.080;5.624;2023-02-22T06:59:09;5.90;99.90
25450;DHT22;13371;52.080;5.624;2023-02-22T07:01:35;5.70;99.90
25450;DHT22;13371;52.080;5.624;2023-02-22T07:04:01;5.80;99.90
25450;DHT22;13371;52.080;5.624;2023-02-22T07:06:27;6.10;99.90
25450;DHT22;13371;52.080;5.624;2023-02-22T07:08:52;6.70;99.90
25450;DHT22;13371;52.080;5.624;2023-02-22T07:11:19;6.70;99.90
25450;DHT22;13371;52.080;5.624;2023-02-22T07:13:44;6.20;99.90
25450;DHT22;13371;52.080;5.624;2023-02-22T07:16:10;6.30;99.90
25450;DHT22;13371;52.080;5.624;2023-02-22T07:18:35;6.30;99.90
25450;DHT22;13371;52.080;5.624;2023-02-22T07:21:01;6.00;99.90
25450;DHT22;13371;52.080;5.624;2023-02-22T07:23:26;6.10;99.90
25450;DHT22;13371;52.080;5.624;2023-02-22T07:25:52;5.90;99.90
25450;DHT22;13371;52.080;5.624;2023-02-22T07:28:18;6.20;99.90
25450;DHT22;13371;52.080;5.624;2023-02-22T07:30:43;6.20;99.90
25450;DHT22;13371;52.080;5.624;2023-02-22T07:33:11;6.30;99.90
25450;DHT22;13371;52.080;5.624;2023-02-22T07:35:48;6.60;99.90
25450;DHT22;13371;52.080;5.624;2023-02-22T07:38:15;6.40;99.90
25450;DHT22;13371;52.080;5.624;2023-02-22T07:40:42;6.40;99.90
25450;DHT22;13371;52.080;5.624;2023-02-22T07:43:18;6.70;99.90
25450;DHT22;13371;52.080;5.624;2023-02-22T07:45:45;7.00;99.90
25450;DHT22;13371;52.080;5.624;2023-02-22T07:48:12;6.70;99.90
25450;DHT22;13371;52.080;5.624;2023-02-22T07:50:38;7.20;99.90
25450;DHT22;13371;52.080;5.624;2023-02-22T07:53:13;7.70;99.90
25450;DHT22;13371;52.080;5.624;2023-02-22T07:55:39;7.10;99.90
25450;DHT22;13371;52.080;5.624;2023-02-22T07:58:07;6.80;99.90
25450;DHT22;13371;52.080;5.624;2023-02-22T08:00:38;6.60;99.90
25450;DHT22;13371;52.080;5.624;2023-02-22T08:03:09;7.10;99.90
25450;DHT22;13371;52.080;5.624;2023-02-22T08:05:37;7.50;99.90
25450;DHT22;13371;52.080;5.624;2023-02-22T08:08:03;7.50;99.90
25450;DHT22;13371;52.080;5.624;2023-02-22T08:10:32;7.70;99.90
25450;DHT22;13371;52.080;5.624;2023-02-22T08:12:59;7.90;99.90
25450;DHT22;13371;52.080;5.624;2023-02-22T08:15:27;7.50;99.90
25450;DHT22;13371;52.080;5.624;2023-02-22T08:17:53;7.50;99.90
25450;DHT22;13371;52.080;5.624;2023-02-22T08:20:19;7.20;99.90
25450;DHT22;13371;52.080;5.624;2023-02-22T08:22:45;7.30;99.90
25450;DHT22;13371;52.080;5.624;2023-02-22T08:25:12;6.70;99.90
25450;DHT22;13371;52.080;5.624;2023-02-22T08:27:40;7.00;99.90
25450;DHT22;13371;52.080;5.624;2023-02-22T08:30:07;7.50;99.90
25450;DHT22;13371;52.080;5.624;2023-02-22T08:32:33;7.70;99.90
25450;DHT22;13371;52.080;5.624;2023-02-22T08:35:00;7.50;99.90
25450;DHT22;13371;52.080;5.624;2023-02-22T08:37:26;7.10;99.90
25450;DHT22;13371;52.080;5.624;2023-02-22T08:39:52;7.10;99.90
25450;DHT22;13371;52.080;5.624;2023-02-22T08:42:20;7.40;99.90
25450;DHT22;13371;52.080;5.624;2023-02-22T08:44:46;8.00;99.90
25450;DHT22;13371;52.080;5.624;2023-02-22T08:47:11;8.10;99.90
25450;DHT22;13371;52.080;5.624;2023-02-22T08:49:37;7.90;99.90
25450;DHT22;13371;52.080;5.624;2023-02-22T08:52:02;8.00;99.90
25450;DHT22;13371;52.080;5.624;2023-02-22T08:54:28;8.20;99.90
25450;DHT22;13371;52.080;5.624;2023-02-22T08:56:53;7.90;99.90
25450;DHT22;13371;52.080;5.624;2023-02-22T08:59:19;8.20;99.90
25450;DHT22;13371;52.080;5.624;2023-02-22T09:01:44;8.10;99.90
25450;DHT22;13371;52.080;5.624;2023-02-22T09:04:10;8.20;99.90
25450;DHT22;13371;52.080;5.624;2023-02-22T09:06:36;7.80;99.90
25450;DHT22;13371;52.080;5.624;2023-02-22T09:09:01;7.70;99.90
25450;DHT22;13371;52.080;5.624;2023-02-22T09:11:27;8.00;99.90
25450;DHT22;13371;52.080;5.624;2023-02-22T09:13:53;7.70;99.90
25450;DHT22;13371;52.080;5.624;2023-02-22T09:16:18;7.70;99.90
25450;DHT22;13371;52.080;5.624;2023-02-22T09:18:44;7.80;99.90
25450;DHT22;13371;52.080;5.624;2023-02-22T09:21:10;7.80;99.90
25450;DHT22;13371;52.080;5.624;2023-02-22T09:23:36;8.00;99.90
25450;DHT22;13371;52.080;5.624;2023-02-22T09:26:02;8.20;99.90
25450;DHT22;13371;52.080;5.624;2023-02-22T09:28:27;8.20;99.90
25450;DHT22;13371;52.080;5.624;2023-02-22T09:30:53;7.80;99.90
25450;DHT22;13371;52.080;5.624;2023-02-22T09:33:19;8.30;99.90
25450;DHT22;13371;52.080;5.624;2023-02-22T09:35:47;8.20;99.90
25450;DHT22;13371;52.080;5.624;2023-02-22T09:38:16;8.20;99.90
25450;DHT22;13371;52.080;5.624;2023-02-22T09:40:46;8.00;99.90
25450;DHT22;13371;52.080;5.624;2023-02-22T09:51:32;9.00;99.90
25450;DHT22;13371;52.080;5.624;2023-02-22T09:54:01;9.50;99.90
25450;DHT22;13371;52.080;5.624;2023-02-22T09:56:29;9.80;99.90
25450;DHT22;13371;52.080;5.624;2023-02-22T09:58:59;9.50;99.90
25450;DHT22;13371;52.080;5.624;2023-02-22T10:01:39;9.10;99.90
25450;DHT22;13371;52.080;5.624;2023-02-22T10:04:28;8.70;99.90
25450;DHT22;13371;52.080;5.624;2023-02-22T10:09:41;9.30;99.90
25450;DHT22;13371;52.080;5.624;2023-02-22T10:12:29;9.20;99.90
25450;DHT22;13371;52.080;5.624;2023-02-22T10:23:56;9.40;99.90
25450;DHT22;13371;52.080;5.624;2023-02-22T10:26:27;9.40;99.90
25450;DHT22;13371;52.080;5.624;2023-02-22T10:31:39;8.80;99.90
25450;DHT22;13371;52.080;5.624;2023-02-22T10:34:13;9.00;99.90
25450;DHT22;13371;52.080;5.624;2023-02-22T10:36:38;9.10;99.90
25450;DHT22;13371;52.080;5.624;2023-02-22T10:39:30;9.30;99.90
25450;DHT22;13371;52.080;5.624;2023-02-22T10:41:58;9.80;99.90
25450;DHT22;13371;52.080;5.624;2023-02-22T10:44:31;9.80;99.90
25450;DHT22;13371;52.080;5.624;2023-02-22T10:46:58;10.20;99.90
25450;DHT22;13371;52.080;5.624;2023-02-22T10:52:18;11.20;99.90
25450;DHT22;13371;52.080;5.624;2023-02-22T10:54:49;11.70;99.90
25450;DHT22;13371;52.080;5.624;2023-02-22T10:57:21;11.90;99.90
25450;DHT22;13371;52.080;5.624;2023-02-22T10:59:47;11.60;99.90
25450;DHT22;13371;52.080;5.624;2023-02-22T11:02:32;11.90;99.90
25450;DHT22;13371;52.080;5.624;2023-02-22T11:05:00;11.90;99.90
25450;DHT22;13371;52.080;5.624;2023-02-22T11:07:32;12.10;99.90
25450;DHT22;13371;52.080;5.624;2023-02-22T11:10:02;12.50;99.90
25450;DHT22;13371;52.080;5.624;2023-02-22T11:12:34;12.70;99.90
25450;DHT22;13371;52.080;5.624;2023-02-22T11:15:25;12.70;99.90
25450;DHT22;13371;52.080;5.624;2023-02-22T11:17:54;13.30;99.90
25450;DHT22;13371;52.080;5.624;2023-02-22T11:22:51;13.20;99.30
25450;DHT22;13371;52.080;5.624;2023-02-22T11:25:22;13.30;98.60
25450;DHT22;13371;52.080;5.624;2023-02-22T11:27:49;13.30;99.60
25450;DHT22;13371;52.080;5.624;2023-02-22T11:30:28;13.50;98.30
25450;DHT22;13371;52.080;5.624;2023-02-22T11:32:58;13.80;97.50
25450;DHT22;13371;52.080;5.624;2023-02-22T11:38:02;13.70;97.90
25450;DHT22;13371;52.080;5.624;2023-02-22T11:40:33;13.70;97.40
25450;DHT22;13371;52.080;5.624;2023-02-22T11:43:19;13.30;97.30
25450;DHT22;13371;52.080;5.624;2023-02-22T11:46:08;13.20;98.40
25450;DHT22;13371;52.080;5.624;2023-02-22T11:48:37;12.60;98.70
25450;DHT22;13371;52.080;5.624;2023-02-22T11:54:14;12.50;99.90
25450;DHT22;13371;52.080;5.624;2023-02-22T11:56:51;12.60;99.90
25450;DHT22;13371;52.080;5.624;2023-02-22T11:59:43;12.80;99.60
25450;DHT22;13371;52.080;5.624;2023-02-22T12:05:27;12.00;99.90
25450;DHT22;13371;52.080;5.624;2023-02-22T12:10:47;12.30;99.90
25450;DHT22;13371;52.080;5.624;2023-02-22T12:16:20;12.80;99.90
25450;DHT22;13371;52.080;5.624;2023-02-22T12:19:14;12.90;99.90
25450;DHT22;13371;52.080;5.624;2023-02-22T12:21:46;13.00;99.60
25450;DHT22;13371;52.080;5.624;2023-02-22T12:24:18;12.60;99.90
25450;DHT22;13371;52.080;5.624;2023-02-22T12:26:49;12.50;99.90
25450;DHT22;13371;52.080;5.624;2023-02-22T12:29:30;12.60;99.90
25450;DHT22;13371;52.080;5.624;2023-02-22T12:32:22;12.60;99.90
25450;DHT22;13371;52.080;5.624;2023-02-22T12:34:52;12.70;99.90
25450;DHT22;13371;52.080;5.624;2023-02-22T12:37:27;12.30;99.90
25450;DHT22;13371;52.080;5.624;2023-02-22T12:40:19;12.70;99.90
25450;DHT22;13371;52.080;5.624;2023-02-22T12:43:18;12.60;99.90
25450;DHT22;13371;52.080;5.624;2023-02-22T12:45:56;12.60;99.90
25450;DHT22;13371;52.080;5.624;2023-02-22T12:54:06;13.00;99.90
25450;DHT22;13371;52.080;5.624;2023-02-22T13:02:19;13.70;99.90
25450;DHT22;13371;52.080;5.624;2023-02-22T13:04:47;13.40;99.90
25450;DHT22;13371;52.080;5.624;2023-02-22T13:15:19;13.00;99.90
25450;DHT22;13371;52.080;5.624;2023-02-22T13:17:50;13.00;99.90
25450;DHT22;13371;52.080;5.624;2023-02-22T13:20:29;12.70;99.90
25450;DHT22;13371;52.080;5.624;2023-02-22T13:23:06;12.80;99.90
25450;DHT22;13371;52.080;5.624;2023-02-22T13:25:50;12.90;99.90
25450;DHT22;13371;52.080;5.624;2023-02-22T13:39:52;12.40;99.90
25450;DHT22;13371;52.080;5.624;2023-02-22T13:48:20;12.40;99.90
25450;DHT22;13371;52.080;5.624;2023-02-22T13:51:08;11.50;99.90
25450;DHT22;13371;52.080;5.624;2023-02-22T13:56:44;12.40;99.90
25450;DHT22;13371;52.080;5.624;2023-02-22T13:59:30;12.80;99.90
25450;DHT22;13371;52.080;5.624;2023-02-22T14:01:57;12.80;99.90
25450;DHT22;13371;52.080;5.624;2023-02-22T14:09:49;12.90;99.90
25450;DHT22;13371;52.080;5.624;2023-02-22T14:17:43;13.30;99.90
25450;DHT22;13371;52.080;5.624;2023-02-22T14:22:45;13.50;99.90
25450;DHT22;13371;52.080;5.624;2023-02-22T14:27:57;13.80;99.90
25450;DHT22;13371;52.080;5.624;2023-02-22T14:30:26;13.60;99.90
25450;DHT22;13371;52.080;5.624;2023-02-22T14:32:52;13.70;99.90
25450;DHT22;13371;52.080;5.624;2023-02-22T14:35:19;13.70;99.70
25450;DHT22;13371;52.080;5.624;2023-02-22T14:37:55;13.70;99.60
25450;DHT22;13371;52.080;5.624;2023-02-22T14:40:33;14.00;99.30
25450;DHT22;13371;52.080;5.624;2023-02-22T14:43:11;14.00;98.80
25450;DHT22;13371;52.080;5.624;2023-02-22T14:45:43;14.10;98.60
25450;DHT22;13371;52.080;5.624;2023-02-22T14:48:18;14.20;98.40
25450;DHT22;13371;52.080;5.624;2023-02-22T14:50:58;14.10;98.00
25450;DHT22;13371;52.080;5.624;2023-02-22T14:53:44;14.20;98.00
25450;DHT22;13371;52.080;5.624;2023-02-22T14:56:23;14.00;98.00
25450;DHT22;13371;52.080;5.624;2023-02-22T14:59:12;14.20;98.30
25450;DHT22;13371;52.080;5.624;2023-02-22T15:01:39;14.20;98.00
25450;DHT22;13371;52.080;5.624;2023-02-22T15:06:54;14.40;98.30
25450;DHT22;13371;52.080;5.624;2023-02-22T15:14:24;13.80;98.60
25450;DHT22;13371;52.080;5.624;2023-02-22T15:16:52;13.70;99.00
25450;DHT22;13371;52.080;5.624;2023-02-22T15:19:31;13.70;99.00
25450;DHT22;13371;52.080;5.624;2023-02-22T15:21:58;13.70;99.00
25450;DHT22;13371;52.080;5.624;2023-02-22T15:24:35;13.90;98.90
25450;DHT22;13371;52.080;5.624;2023-02-22T15:27:06;13.60;99.10
25450;DHT22;13371;52.080;5.624;2023-02-22T15:29:37;13.60;99.40
25450;DHT22;13371;52.080;5.624;2023-02-22T15:34:51;13.60;99.40
25450;DHT22;13371;52.080;5.624;2023-02-22T15:37:23;13.70;99.30
25450;DHT22;13371;52.080;5.624;2023-02-22T15:40:08;13.80;99.60
25450;DHT22;13371;52.080;5.624;2023-02-22T15:42:44;14.00;99.00
25450;DHT22;13371;52.080;5.624;2023-02-22T15:45:15;14.10;98.70
25450;DHT22;13371;52.080;5.624;2023-02-22T15:47:41;14.00;99.00
25450;DHT22;13371;52.080;5.624;2023-02-22T15:50:25;13.90;99.20
25450;DHT22;13371;52.080;5.624;2023-02-22T15:52:56;13.70;99.70
25450;DHT22;13371;52.080;5.624;2023-02-22T15:58:00;13.60;99.80
25450;DHT22;13371;52.080;5.624;2023-02-22T16:00:31;13.60;99.50
25450;DHT22;13371;52.080;5.624;2023-02-22T16:03:06;13.70;99.60
25450;DHT22;13371;52.080;5.624;2023-02-22T16:05:43;13.70;99.70
25450;DHT22;13371;52.080;5.624;2023-02-22T16:08:24;13.50;99.50
25450;DHT22;13371;52.080;5.624;2023-02-22T16:10:58;13.40;99.80
25450;DHT22;13371;52.080;5.624;2023-02-22T16:13:26;13.30;99.90
25450;DHT22;13371;52.080;5.624;2023-02-22T16:18:41;13.40;99.90
25450;DHT22;13371;52.080;5.624;2023-02-22T16:21:11;13.40;99.90
25450;DHT22;13371;52.080;5.624;2023-02-22T16:23:53;13.50;99.90
25450;DHT22;13371;52.080;5.624;2023-02-22T16:26:26;13.40;99.90
25450;DHT22;13371;52.080;5.624;2023-02-22T16:29:07;13.30;99.90
25450;DHT22;13371;52.080;5.624;2023-02-22T16:31:35;13.10;99.90
25450;DHT22;13371;52.080;5.624;2023-02-22T16:34:02;13.30;99.90
25450;DHT22;13371;52.080;5.624;2023-02-22T16:36:41;13.30;99.90
25450;DHT22;13371;52.080;5.624;2023-02-22T16:39:11;13.30;99.80
25450;DHT22;13371;52.080;5.624;2023-02-22T16:41:38;13.10;99.90
25450;DHT22;13371;52.080;5.624;2023-02-22T16:44:04;13.20;99.90
25450;DHT22;13371;52.080;5.624;2023-02-22T16:46:32;13.10;99.90
25450;DHT22;13371;52.080;5.624;2023-02-22T16:48:58;12.90;99.90
25450;DHT22;13371;52.080;5.624;2023-02-22T16:51:28;12.80;99.90
25450;DHT22;13371;52.080;5.624;2023-02-22T16:53:55;12.90;99.90
25450;DHT22;13371;52.080;5.624;2023-02-22T16:56:28;13.00;99.90
25450;DHT22;13371;52.080;5.624;2023-02-22T16:58:54;12.90;99.90
25450;DHT22;13371;52.080;5.624;2023-02-22T17:01:20;13.00;99.90
25450;DHT22;13371;52.080;5.624;2023-02-22T17:03:48;12.90;99.90
25450;DHT22;13371;52.080;5.624;2023-02-22T17:06:15;12.60;99.90
25450;DHT22;13371;52.080;5.624;2023-02-22T17:08:41;12.70;99.90
25450;DHT22;13371;52.080;5.624;2023-02-22T17:11:09;12.90;99.90
25450;DHT22;13371;52.080;5.624;2023-02-22T17:13:36;13.10;99.90
25450;DHT22;13371;52.080;5.624;2023-02-22T17:16:02;13.20;99.90
25450;DHT22;13371;52.080;5.624;2023-02-22T17:18:28;13.20;99.90
25450;DHT22;13371;52.080;5.624;2023-02-22T17:20:58;13.00;99.90
25450;DHT22;13371;52.080;5.624;2023-02-22T17:23:24;12.80;99.90
25450;DHT22;13371;52.080;5.624;2023-02-22T17:25:59;12.90;99.90
25450;DHT22;13371;52.080;5.624;2023-02-22T17:28:28;13.10;99.90
25450;DHT22;13371;52.080;5.624;2023-02-22T17:30:56;13.10;99.90
25450;DHT22;13371;52.080;5.624;2023-02-22T17:33:26;12.90;99.90
25450;DHT22;13371;52.080;5.624;2023-02-22T17:35:54;12.90;99.90
25450;DHT22;13371;52.080;5.624;2023-02-22T17:38:20;13.00;99.90
25450;DHT22;13371;52.080;5.624;2023-02-22T17:40:47;12.90;99.90
25450;DHT22;13371;52.080;5.624;2023-02-22T17:43:13;12.80;99.90
25450;DHT22;13371;52.080;5.624;2023-02-22T17:45:39;13.00;99.90
25450;DHT22;13371;52.080;5.624;2023-02-22T17:48:07;13.00;99.90
25450;DHT22;13371;52.080;5.624;2023-02-22T17:50:36;13.00;99.90
25450;DHT22;13371;52.080;5.624;2023-02-22T17:53:02;12.80;99.90
25450;DHT22;13371;52.080;5.624;2023-02-22T17:55:28;12.60;99.90
25450;DHT22;13371;52.080;5.624;2023-02-22T17:57:56;12.60;99.90
25450;DHT22;13371;52.080;5.624;2023-02-22T18:00:27;12.50;99.90
25450;DHT22;13371;52.080;5.624;2023-02-22T18:05:37;12.90;99.90
25450;DHT22;13371;52.080;5.624;2023-02-22T18:08:02;12.60;99.90
25450;DHT22;13371;52.080;5.624;2023-02-22T18:10:28;12.70;99.90
25450;DHT22;13371;52.080;5.624;2023-02-22T18:12:53;12.50;99.90
25450;DHT22;13371;52.080;5.624;2023-02-22T18:15:21;11.90;99.90
25450;DHT22;13371;52.080;5.624;2023-02-22T18:17:47;11.90;99.90
25450;DHT22;13371;52.080;5.624;2023-02-22T18:20:14;11.90;99.90
25450;DHT22;13371;52.080;5.624;2023-02-22T18:22:41;12.00;99.90
25450;DHT22;13371;52.080;5.624;2023-02-22T18:25:13;11.90;99.90
25450;DHT22;13371;52.080;5.624;2023-02-22T18:27:42;12.10;99.90
25450;DHT22;13371;52.080;5.624;2023-02-22T18:30:09;12.30;99.90
25450;DHT22;13371;52.080;5.624;2023-02-22T18:32:37;12.60;99.90